Terminal Aerodrome Forecast
Issued by NWS Sioux Falls, SD

Home | Current Version | Previous Version | Text Only | Print | Product List | Glossary On
Versions: 1 2 3 4 5 6 7 8 9 10 11 12 13
000
FTUS43 KFSD 231733
TAFHON
TAF
KHON 231733Z 2318/2418 19014G20KT P6SM FEW250
     FM232000 25012KT P6SM SCT060 BKN200
     FM232300 31014KT P6SM FEW040 SCT250
     FM240300 33008KT P6SM FEW250=

USA.gov is the U.S. government's official web portal to all federal, state and local government web resources and services.